Flight Track Log - Related Links

Times and Time Zones

All times are in EDT time to prevent confusion due to time zone crossing. See the AAL2359 flight status page for this flight to view local times or setup timezone preferences in your user account.

Time Position Orientation Groundspeed Altitude Reporting Facility
EDT Latitude Longitude Course Direction KTS MPH feet Rate Location/Type
Tue 11:04:17 PM 41.9333 -87.9167 207° Southwest 166 191 2,200  Level Chicago TRACON
Tue 11:05:11 PM 41.8833 -87.9333 194° South 223 257 3,800 1,463 Climbing Chicago TRACON
Tue 11:06:00 PM 41.7180 -88.2183 201° Southwest  Level Estimated
Tue 11:06:20 PM 41.7992 -87.9411 184° South 266 306 5,200  Level Chicago Center
Tue 11:07:00 PM 41.6300 -88.3216 197° South  Level Estimated
Tue 11:07:21 PM 41.7264 -87.9556 188° South 277 319 7,700  Level Chicago Center
Tue 11:08:00 PM 41.5418 -88.4246 194° South  Level Estimated
Tue 11:08:22 PM 41.6553 -88.0067 208° Southwest 294 338 10,400  Level Chicago Center
Tue 11:09:00 PM 41.4536 -88.5273 207° Southwest  Level Estimated
Tue 11:09:24 PM 41.5831 -88.0564 207° Southwest 295 339 13,000  Level Chicago Center
Tue 11:10:25 PM 41.5042 -88.1122 208° Southwest 329 379 14,200 1,377 Climbing Chicago Center
Tue 11:11:26 PM 41.3944 -88.1872 207° Southwest 390 449 15,800 1,721 Climbing Chicago Center
Tue 11:12:27 PM 41.2886 -88.2350 199° South 408 470 17,700 1,672 Climbing Chicago Center
Tue 11:13:28 PM 41.1797 -88.2847 199° South 417 480 19,200 1,610 Climbing Chicago Center
Tue 11:14:30 PM 41.0672 -88.3361 199° South 428 493 21,000 1,561 Climbing Chicago Center
Tue 11:15:31 PM 40.9506 -88.3872 198° South 441 507 22,400 1,525 Climbing Chicago Center
Tue 11:16:32 PM 40.8325 -88.4403 199° South 449 517 24,100 1,574 Climbing Chicago Center
Tue 11:17:33 PM 40.7122 -88.5597 217° Southwest 474 545 25,600 1,756 Climbing Chicago Center
Tue 11:18:35 PM 40.6292 -88.6878 230° Southwest 464 534 27,700 1,756 Climbing Chicago Center
Tue 11:19:36 PM 40.5375 -88.8011 223° Southwest 457 526 29,200 1,377 Climbing Chicago Center
Tue 11:20:37 PM 40.4544 -88.9103 225° Southwest 452 520 30,500 1,230 Climbing Chicago Center
Tue 11:21:38 PM 40.3675 -89.0303 226° Southwest 453 521 31,700 1,033 Climbing Chicago Center
Tue 11:22:39 PM 40.2800 -89.1467 225° Southwest 449 517 32,600 878 Climbing Chicago Center
Tue 11:23:41 PM 40.1928 -89.2614 225° Southwest 445 512 33,500 694 Climbing Chicago Center
Tue 11:24:40 PM 40.1044 -89.3797 226° Southwest 447 514 34,000 250 Climbing Kansas City Center
Tue 11:25:41 PM 40.0178 -89.4947 225° Southwest 444 511 34,000  Level Kansas City Center
Tue 11:26:40 PM 39.9289 -89.6092 225° Southwest 446 513 34,000  Level Kansas City Center
Tue 11:27:41 PM 39.8422 -89.7261 226° Southwest 447 514 34,000  Level Kansas City Center
Tue 11:28:42 PM 39.7544 -89.8394 225° Southwest 445 512 34,000  Level Kansas City Center
Tue 11:29:43 PM 39.6528 -89.9744 226° Southwest 449 517 34,000  Level Kansas City Center
Tue 11:30:45 PM 39.5653 -90.0908 226° Southwest 450 518 34,000  Level Kansas City Center
Tue 11:31:46 PM 39.4772 -90.2044 225° Southwest 450 518 34,000  Level Kansas City Center
Tue 11:32:46 PM 39.3897 -90.3183 225° Southwest 449 517 34,000  Level Kansas City Center
Tue 11:33:49 PM 39.3028 -90.4319 225° Southwest 447 514 34,000  Level Kansas City Center
Tue 11:34:51 PM 39.2161 -90.5428 225° Southwest 444 511 34,000  Level Kansas City Center
Tue 11:35:51 PM 39.1297 -90.6550 225° Southwest 443 510 34,000  Level Kansas City Center
Tue 11:36:53 PM 39.0431 -90.7642 224° Southwest 442 509 34,000  Level Kansas City Center
Tue 11:37:54 PM 38.9581 -90.8719 225° Southwest 438 504 34,000  Level Kansas City Center
Tue 11:38:55 PM 38.8539 -91.0036 225° Southwest 441 507 34,000  Level Kansas City Center
Tue 11:39:57 PM 38.7672 -91.1122 224° Southwest 441 507 34,000  Level Kansas City Center
Tue 11:40:58 PM 38.6819 -91.2217 225° Southwest 438 504 34,000  Level Kansas City Center
Tue 11:41:58 PM 38.5889 -91.3219 220° Southwest 439 505 34,000  Level Kansas City Center
Tue 11:42:59 PM 38.4822 -91.4203 216° Southwest 438 504 34,000  Level Kansas City Center
Tue 11:43:59 PM 38.3839 -91.5150 217° Southwest 442 509 34,000  Level Kansas City Center
Tue 11:44:59 PM 38.2864 -91.6083 217° Southwest 438 504 34,000  Level Kansas City Center
Tue 11:46:02 PM 38.1883 -91.7011 217° Southwest 439 505 34,000  Level Kansas City Center
Tue 11:47:03 PM 38.0911 -91.7944 217° Southwest 436 502 34,000  Level Kansas City Center
Tue 11:48:03 PM 37.9939 -91.8892 218° Southwest 437 503 34,000  Level Kansas City Center
Tue 11:49:03 PM 37.8961 -91.9828 217° Southwest 435 501 34,000  Level Kansas City Center
Tue 11:50:06 PM 37.7919 -92.0811 217° Southwest 438 504 34,000  Level Kansas City Center
Tue 11:51:07 PM 37.6853 -92.1586 210° Southwest 441 507 34,000  Level Kansas City Center
Tue 11:52:06 PM 37.5806 -92.2375 211° Southwest 445 512 34,000  Level Kansas City Center
Tue 11:53:10 PM 37.4725 -92.3158 210° Southwest 445 512 34,000  Level Kansas City Center
Tue 11:54:10 PM 37.3653 -92.3956 211° Southwest 444 511 34,000  Level Kansas City Center
Tue 11:55:11 PM 37.2711 -92.4989 221° Southwest 446 513 34,000  Level Kansas City Center
Tue 11:56:12 PM 37.1731 -92.5931 217° Southwest 443 510 34,000  Level Kansas City Center
Tue 11:57:11 PM 37.0753 -92.6861 217° Southwest 442 509 34,000  Level Kansas City Center
Tue 11:58:12 PM 36.9800 -92.7819 219° Southwest 439 505 34,000  Level Kansas City Center
Tue 11:59:15 PM 36.8794 -92.8736 216° Southwest 444 511 34,000  Level Kansas City Center
Wed 12:00:15 AM 36.7811 -92.9667 217° Southwest 442 509 34,000  Level Kansas City Center
Wed 12:01:16 AM 36.6622 -93.0797 217° Southwest 446 513 34,000  Level Kansas City Center
Wed 12:02:17 AM 36.5794 -93.1583 217° Southwest 448 516 34,000  Level Kansas City Center
Wed 12:03:18 AM 36.4811 -93.2542 218° Southwest 449 517 34,000  Level Kansas City Center
Wed 12:04:20 AM 36.3811 -93.3458 216° Southwest 449 517 34,000  Level Kansas City Center
Wed 12:05:02 AM 36.2981 -93.4317 220° Southwest 456 525 34,000  Level Memphis Center
Wed 12:06:02 AM 36.1956 -93.5256 216° Southwest 456 525 34,000  Level Memphis Center
Wed 12:07:02 AM 36.0953 -93.6192 217° Southwest 451 519 34,000  Level Memphis Center
Wed 12:08:02 AM 35.9967 -93.7128 218° Southwest 451 519 34,000  Level Memphis Center
Wed 12:09:02 AM 35.8964 -93.8036 216° Southwest 451 519 34,000  Level Memphis Center
Wed 12:10:02 AM 35.7978 -93.8967 217° Southwest 451 519 34,000  Level Memphis Center
Wed 12:11:02 AM 35.6972 -93.9894 217° Southwest 456 525 34,000  Level Memphis Center
Wed 12:12:02 AM 35.5964 -94.0822 217° Southwest 456 525 34,000  Level Memphis Center
Wed 12:13:02 AM 35.4975 -94.1747 217° Southwest 456 525 34,000  Level Memphis Center
Wed 12:14:02 AM 35.3839 -94.2764 216° Southwest 456 525 34,000  Level Memphis Center
Wed 12:15:02 AM 35.2931 -94.3789 223° Southwest 456 525 34,000  Level Memphis Center
Wed 12:16:39 AM 35.1419 -94.5422 221° Southwest 448 516 34,000  Level Fort Worth Center
Wed 12:17:39 AM 35.0503 -94.6417 222° Southwest 453 521 34,000  Level Fort Worth Center
Wed 12:18:39 AM 34.9567 -94.7433 222° Southwest 458 527 34,000  Level Fort Worth Center
Wed 12:19:39 AM 34.8811 -94.8267 222° Southwest 452 520 34,000  Level Fort Worth Center
Wed 12:20:39 AM 34.7750 -94.9411 222° Southwest 458 527 34,000  Level Fort Worth Center
Wed 12:21:39 AM 34.6831 -95.0372 221° Southwest 451 519 34,000  Level Fort Worth Center
Wed 12:22:39 AM 34.5867 -95.1383 221° Southwest 456 525 34,000  Level Fort Worth Center
Wed 12:23:39 AM 34.4967 -95.2364 222° Southwest 456 525 34,000  Level Fort Worth Center
Wed 12:24:39 AM 34.4025 -95.3369 221° Southwest 456 525 34,000  Level Fort Worth Center
Wed 12:25:39 AM 34.2978 -95.4475 221° Southwest 456 525 34,000 -1,100 Level Fort Worth Center
Wed 12:26:39 AM 34.2033 -95.5453 221° Southwest 451 519 31,800 -2,300 Descending Fort Worth Center
Wed 12:27:39 AM 34.1067 -95.6450 221° Southwest 456 525 29,400 -2,450 Descending Fort Worth Center
Wed 12:28:39 AM 34.0203 -95.7397 222° Southwest 462 532 26,900 -2,600 Descending Fort Worth Center
Wed 12:29:39 AM 33.9153 -95.8442 220° Southwest 480 552 24,200 -2,850 Descending Fort Worth Center
Wed 12:30:39 AM 33.8039 -95.9586 221° Southwest 480 552 21,200 -2,750 Descending Fort Worth Center
Wed 12:31:39 AM 33.7111 -96.0575 222° Southwest 468 539 18,700 -2,600 Descending Fort Worth Center
Wed 12:32:39 AM 33.6308 -96.1661 228° Southwest 444 511 16,000 -2,600 Descending Fort Worth Center
Wed 12:33:39 AM 33.5547 -96.2719 229° Southwest 430 495 13,500 -2,250 Descending Fort Worth Center
Wed 12:34:39 AM 33.4825 -96.3725 229° Southwest 410 472 11,500 -1,250 Descending Fort Worth Center
Wed 12:35:39 AM 33.4122 -96.4703 229° Southwest 405 466 11,000 -532 Descending Fort Worth Center
Wed 12:36:43 AM 33.3500 -96.5667 232° Southwest 305 351 10,400 -1,200 Descending Dallas / Fort Worth TRACON
Wed 12:37:39 AM 33.2964 -96.6281 224° Southwest 316 364 8,600 -1,966 Descending Fort Worth Center
Wed 12:38:39 AM 33.2447 -96.7006 230° Southwest 292 336 6,600 -1,800 Descending Fort Worth Center
Wed 12:39:39 AM 33.1908 -96.7731 228° Southwest 286 329 5,000 -800 Descending Fort Worth Center
Wed 12:40:39 AM 33.1411 -96.8428 230° Southwest 286 329 5,000 -268 Level Fort Worth Center
Wed 12:41:31 AM 33.1000 -96.9000 229° Southwest 282 325 4,500 -857 Descending Dallas / Fort Worth TRACON
Wed 12:42:31 AM 33.0667 -96.9833 245° Southwest 245 282 3,400 -836 Descending Dallas / Fort Worth TRACON
Wed 12:43:33 AM 33.0333 -97.0333 232° Southwest 185 213 2,800 -800 Descending Dallas / Fort Worth TRACON
Wed 12:44:31 AM 33.0000 -97.0500 203° Southwest 180 207 1,800 -661 Descending Dallas / Fort Worth TRACON
Wed 12:45:31 AM 32.9500 -97.0500 180° South 132 152 1,500 250 Descending Dallas / Fort Worth TRACON
Wed 12:46:31 AM 32.9167 -97.0667 203° Southwest 161 185 2,300 750 Climbing Dallas / Fort Worth TRACON
Wed 12:47:39 AM 32.8667 -97.1000 209° Southwest 213 245 3,100 381 Climbing Dallas / Fort Worth TRACON
Wed 12:48:37 AM 32.9000 -97.1667 301° West 251 289 3,100  Level Dallas / Fort Worth TRACON
Wed 12:49:31 AM 32.9500 -97.1833 344° North 233 268 3,100  Level Dallas / Fort Worth TRACON
Wed 12:50:39 AM 33.0167 -97.1833 360° North 201 231 3,100  Level Dallas / Fort Worth TRACON
Wed 12:51:37 AM 33.0500 -97.1333 51° Northeast 187 215 3,100 -305 Level Dallas / Fort Worth TRACON
Wed 12:52:37 AM 33.0500 -97.0667 90° East 175 201 2,500 -400 Descending Dallas / Fort Worth TRACON
Wed 12:53:37 AM 33.0000 -97.0500 164° South 167 192 2,300 -476 Descending Dallas / Fort Worth TRACON
Wed 12:54:43 AM 32.9667 -97.0500 180° South 145 167 1,500 -727 Descending Dallas / Fort Worth TRACON

Login

Don't have an account? Register now (free) for customized features, flight alerts, and more!